עמוד ראשי
METAR-TAF:

METAR-TAF

שדות תעופה :

מקסיקלי, מקסיקו

קו רוחב: 32-37-50N, קו אורך: 115-14-30W, גובה: 22מטר

תצפית מזג אוויר נוכחית

הדו"ח נערך לפני 1 שעות ו 40דקות, בשעה 07:51 UTC
רוח 7קשר מכיוון צפון/צפון-מערב
טמפרטורת 32 צלסיוס
לחות 10%
לחץ 1003 hPa
ראות: 16.1קילומטר
שמיים נקיים

METAR: MMML 160751Z 33007KT 10SM SKC 32/M03 A2962

זמן: 04:31 (09:31 UTC)

תחזית

הדו"ח נערך לפני 4 שעות ו 38דקות, בשעה 04:53 UTC
תחזית בתוקף מ 16 ב 06 UTC עד 17 ב 06 UTC
רוח קשר מכיוון צפון
ראות: 10קילומטר
שמיים נקיים
מ 16 ב 1500UTC
רוח 5קשר מכיוון דרום
ראות: 10קילומטר
שמיים נקיים
יעשה מ
16 ב 20 UTC עד 16 ב 21 UTC
רוח 12קשר מכיוון דרום-מערב
מ 17 ב 0300UTC
רוח 5קשר מכיוון מערב/צפון-מערב
ראות: 10קילומטר
שמיים נקיים

TAF: MMML 160453Z 1606/1706 00000KT P6SM SKC FM161500 18005KT P6SM SKC BECMG 1620/1621 22012KT FM170300 30005KT P6SM SKC

תצפיות ותחזיות מזג אוויר לגבי יותר מ- 4,000 שדות תעופה ברחבי העולם. דוחות METAR ו- TAF.

התחנות הזמינות מסומנות בנקודות צהובות ואדומות על גבי המפה.

העבר את העכבר לנקודה הצבעונית על מנת לראות את שם התחנה.

לאחר מכן, לחץ כדי לראות את תוכן ואת תחזיות מזג האוויר.

כדי לשנות את המפה: לחץ על הכפתורים הירוקים עם הפלוס השחור כדי להתקרב; על הכפתור הירוק עם המקף כדי להתרחק; או בחיצים הירוקים למפות סמוכות.


METAR-TAF: